Time;durP1;ratioP1;P1;durP2;ratioP2;P2;SDS_P1;SDS_P2;PMS_P1;PMS_P2;Temp;Humidity;BMP_temperature;BMP_pressure;BME280_temperature;BME280_humidity;BME280_pressure;Samples;Min_cycle;Max_cycle;Signal;HPM_P1;HPM_P2
2023/10/27 00:01:12;;;;;;;3.55;1.63;;;;;;;;;;5094251;28;20031;-59
2023/10/27 00:03:38;;;;;;;4.68;2.05;;;;;;;;;;5093927;28;20458;-59
2023/10/27 00:06:04;;;;;;;4.95;2.05;;;;;;;;;;5093761;28;20065;-59
2023/10/27 00:08:30;;;;;;;3.85;1.77;;;;;;;;;;5093824;28;20031;-59
2023/10/27 00:10:56;;;;;;;5.22;1.67;;;;;;;;;;5092685;28;20028;-59
2023/10/27 00:13:22;;;;;;;3.40;0.98;;;;;;;;;;5093839;28;20020;-59
2023/10/27 00:15:48;;;;;;;4.05;1.75;;;;;;;;;;5093587;28;20024;-59
2023/10/27 00:18:14;;;;;;;4.07;1.73;;;;;;;;;;5093662;28;20041;-59
2023/10/27 00:20:40;;;;;;;4.35;1.77;;;;;;;;;;5094233;28;20067;-59
2023/10/27 00:23:06;;;;;;;3.20;1.98;;;;;;;;;;5093201;28;20113;-59
2023/10/27 00:25:32;;;;;;;5.45;1.85;;;;;;;;;;5093978;28;20396;-59
2023/10/27 00:27:58;;;;;;;4.85;1.35;;;;;;;;;;5093677;28;20028;-59
2023/10/27 00:30:24;;;;;;;1.70;1.00;;;;;;;;;;5093669;28;20080;-59
2023/10/27 00:32:50;;;;;;;2.70;1.27;;;;;;;;;;5093840;28;20085;-59
2023/10/27 00:35:16;;;;;;;3.17;1.52;;;;;;;;;;5093511;28;20036;-59
2023/10/27 00:37:42;;;;;;;3.35;1.63;;;;;;;;;;5093089;28;20070;-59
2023/10/27 00:40:08;;;;;;;4.63;1.50;;;;;;;;;;5094127;28;20032;-59
2023/10/27 00:42:34;;;;;;;4.22;1.20;;;;;;;;;;5093430;28;20107;-59
2023/10/27 00:45:00;;;;;;;1.83;1.20;;;;;;;;;;5093171;28;20024;-59
2023/10/27 00:47:27;;;;;;;5.60;1.75;;;;;;;;;;5093542;28;20370;-59
2023/10/27 00:49:55;;;;;;;5.10;1.38;;;;;;;;;;5093468;28;20465;-59
2023/10/27 00:52:23;;;;;;;4.22;1.83;;;;;;;;;;5093620;28;20163;-59
2023/10/27 00:54:49;;;;;;;5.10;1.50;;;;;;;;;;5093638;28;20063;-59
2023/10/27 00:57:16;;;;;;;4.03;2.13;;;;;;;;;;5093380;28;20118;-59
2023/10/27 00:59:42;;;;;;;3.85;1.45;;;;;;;;;;5093915;28;20024;-59
2023/10/27 01:02:09;;;;;;;5.43;1.75;;;;;;;;;;5093616;28;20366;-59
2023/10/27 01:04:35;;;;;;;5.85;1.80;;;;;;;;;;5093288;28;20119;-59
2023/10/27 01:07:01;;;;;;;3.35;1.60;;;;;;;;;;5092882;28;20055;-59
2023/10/27 01:09:27;;;;;;;3.08;1.55;;;;;;;;;;5093556;28;20032;-59
2023/10/27 01:11:53;;;;;;;2.95;1.25;;;;;;;;;;5093459;28;20031;-59
2023/10/27 01:14:19;;;;;;;2.80;1.60;;;;;;;;;;5093277;28;20412;-59
2023/10/27 01:16:45;;;;;;;4.70;1.90;;;;;;;;;;5093068;28;20038;-59
2023/10/27 01:19:12;;;;;;;5.53;1.58;;;;;;;;;;5093660;28;20480;-59
2023/10/27 01:21:38;;;;;;;2.63;1.60;;;;;;;;;;5093430;28;20039;-59
2023/10/27 01:24:04;;;;;;;3.63;1.63;;;;;;;;;;5093187;28;20024;-59
2023/10/27 01:26:30;;;;;;;2.95;1.38;;;;;;;;;;5093012;28;20039;-59
2023/10/27 01:28:56;;;;;;;2.28;1.30;;;;;;;;;;5093115;28;20024;-59
2023/10/27 01:31:23;;;;;;;3.20;1.20;;;;;;;;;;5093571;28;20105;-59
2023/10/27 01:33:49;;;;;;;5.07;1.63;;;;;;;;;;5094932;28;20358;-59
2023/10/27 01:36:15;;;;;;;2.03;1.10;;;;;;;;;;5096674;28;20048;-59
2023/10/27 01:38:40;;;;;;;2.45;1.30;;;;;;;;;;5097161;28;20043;-59
2023/10/27 01:41:06;;;;;;;2.60;1.25;;;;;;;;;;5096901;28;20027;-59
2023/10/27 01:43:32;;;;;;;2.88;1.40;;;;;;;;;;5097025;28;20074;-59
2023/10/27 01:45:58;;;;;;;1.38;0.70;;;;;;;;;;5096469;28;20423;-59
2023/10/27 01:48:24;;;;;;;2.30;1.08;;;;;;;;;;5096971;28;20028;-59
2023/10/27 01:50:50;;;;;;;2.22;1.13;;;;;;;;;;5096089;28;20030;-59
2023/10/27 01:53:16;;;;;;;4.40;1.02;;;;;;;;;;5096647;28;20028;-59
2023/10/27 01:55:42;;;;;;;6.07;1.77;;;;;;;;;;5096197;28;20092;-59
2023/10/27 01:58:08;;;;;;;2.20;1.05;;;;;;;;;;5096243;28;20028;-59
2023/10/27 02:00:34;;;;;;;4.53;1.42;;;;;;;;;;5096767;28;20107;-59
2023/10/27 02:03:00;;;;;;;1.55;0.73;;;;;;;;;;5096171;28;20117;-59
2023/10/27 02:05:26;;;;;;;2.72;1.10;;;;;;;;;;5096030;28;20024;-59
2023/10/27 02:07:52;;;;;;;2.78;1.10;;;;;;;;;;5096619;28;20052;-59
2023/10/27 02:10:18;;;;;;;3.13;1.00;;;;;;;;;;5096100;28;20028;-59
2023/10/27 02:12:45;;;;;;;6.25;1.08;;;;;;;;;;5095716;28;20020;-59
2023/10/27 02:15:11;;;;;;;2.58;1.40;;;;;;;;;;5095770;28;20450;-59
2023/10/27 02:17:39;;;;;;;2.42;1.02;;;;;;;;;;5095906;28;20043;-59
2023/10/27 02:20:05;;;;;;;5.43;1.08;;;;;;;;;;5096413;28;20099;-59
2023/10/27 02:22:31;;;;;;;3.58;1.35;;;;;;;;;;5095433;28;20381;-59
2023/10/27 02:24:57;;;;;;;1.58;0.88;;;;;;;;;;5095709;28;20032;-59
2023/10/27 02:27:23;;;;;;;2.38;1.00;;;;;;;;;;5095311;28;20024;-59
2023/10/27 02:29:49;;;;;;;2.53;1.30;;;;;;;;;;5096481;28;20028;-59
2023/10/27 02:32:15;;;;;;;6.45;1.40;;;;;;;;;;5096302;28;20028;-59
2023/10/27 02:34:41;;;;;;;4.50;1.10;;;;;;;;;;5095435;28;20068;-59
2023/10/27 02:37:07;;;;;;;2.72;0.90;;;;;;;;;;5095236;28;20047;-59
2023/10/27 02:39:33;;;;;;;1.63;1.00;;;;;;;;;;5095914;28;20035;-59
2023/10/27 02:41:58;;;;;;;3.03;1.02;;;;;;;;;;5095997;28;20458;-59
2023/10/27 02:44:24;;;;;;;3.17;1.55;;;;;;;;;;5095030;28;20028;-59
2023/10/27 02:46:50;;;;;;;2.03;1.08;;;;;;;;;;5095153;28;20066;-59
2023/10/27 02:49:16;;;;;;;3.03;1.17;;;;;;;;;;5095237;28;20073;-59
2023/10/27 02:51:42;;;;;;;2.35;0.98;;;;;;;;;;5095545;28;20086;-59
2023/10/27 02:54:08;;;;;;;1.98;1.20;;;;;;;;;;5095158;28;20099;-59
2023/10/27 02:56:34;;;;;;;2.35;1.02;;;;;;;;;;5095496;28;20029;-59
2023/10/27 02:59:00;;;;;;;2.47;0.90;;;;;;;;;;5095251;28;20032;-59
2023/10/27 03:01:26;;;;;;;2.80;1.27;;;;;;;;;;5095096;28;20515;-59
2023/10/27 03:03:52;;;;;;;6.53;1.10;;;;;;;;;;5094870;28;20031;-59
2023/10/27 03:06:18;;;;;;;2.58;1.25;;;;;;;;;;5095007;28;20089;-59
2023/10/27 03:08:45;;;;;;;1.90;0.70;;;;;;;;;;5094824;28;20020;-59
2023/10/27 03:11:11;;;;;;;2.88;0.93;;;;;;;;;;5095351;28;20073;-59
2023/10/27 03:13:37;;;;;;;3.53;1.17;;;;;;;;;;5095268;28;20426;-59
2023/10/27 03:16:03;;;;;;;1.23;0.70;;;;;;;;;;5094601;28;20028;-59
2023/10/27 03:18:29;;;;;;;3.15;1.48;;;;;;;;;;5095461;28;20031;-59
2023/10/27 03:20:56;;;;;;;2.40;0.90;;;;;;;;;;5095180;28;20024;-59
2023/10/27 03:23:23;;;;;;;1.60;0.82;;;;;;;;;;5095421;28;20039;-59
2023/10/27 03:25:48;;;;;;;3.45;0.90;;;;;;;;;;5094519;28;20085;-59
2023/10/27 03:28:15;;;;;;;3.42;1.27;;;;;;;;;;5095247;28;20032;-59
2023/10/27 03:30:42;;;;;;;4.00;1.10;;;;;;;;;;5095277;28;20403;-59
2023/10/27 03:33:08;;;;;;;1.83;0.98;;;;;;;;;;5094908;28;20369;-59
2023/10/27 03:35:34;;;;;;;1.33;0.85;;;;;;;;;;5093997;28;20140;-59
2023/10/27 03:38:00;;;;;;;2.58;1.00;;;;;;;;;;5095216;28;20056;-59
2023/10/27 03:40:29;;;;;;;2.60;1.10;;;;;;;;;;5094557;28;20445;-59
2023/10/27 03:42:55;;;;;;;3.70;0.90;;;;;;;;;;5094013;28;20028;-59
2023/10/27 03:45:21;;;;;;;2.13;0.82;;;;;;;;;;5094154;28;20365;-59
2023/10/27 03:47:47;;;;;;;3.88;1.40;;;;;;;;;;5094483;28;20028;-59
2023/10/27 03:50:13;;;;;;;1.80;1.00;;;;;;;;;;5094979;28;20024;-59
2023/10/27 03:52:39;;;;;;;2.35;1.05;;;;;;;;;;5093865;28;20030;-59
2023/10/27 03:55:07;;;;;;;1.77;0.98;;;;;;;;;;5094016;28;20062;-59
2023/10/27 03:57:36;;;;;;;0.95;0.30;;;;;;;;;;5093856;28;20028;-59
2023/10/27 04:00:03;;;;;;;3.22;1.10;;;;;;;;;;5094501;28;20038;-59
2023/10/27 04:02:29;;;;;;;2.33;0.93;;;;;;;;;;5093898;28;20107;-59
2023/10/27 04:04:55;;;;;;;1.80;0.68;;;;;;;;;;5094317;28;20058;-59
2023/10/27 04:07:21;;;;;;;2.95;1.13;;;;;;;;;;5093567;28;20558;-59
2023/10/27 04:09:47;;;;;;;1.25;0.80;;;;;;;;;;5094350;28;20016;-59
2023/10/27 04:12:13;;;;;;;1.25;0.60;;;;;;;;;;5093690;28;20024;-59
2023/10/27 04:14:39;;;;;;;1.15;0.50;;;;;;;;;;5093601;28;20028;-59
2023/10/27 04:17:08;;;;;;;1.42;0.70;;;;;;;;;;5093399;28;20095;-59
2023/10/27 04:19:34;;;;;;;2.03;0.82;;;;;;;;;;5094145;28;20361;-59
2023/10/27 04:22:01;;;;;;;2.80;1.00;;;;;;;;;;5093982;28;20020;-59
2023/10/27 04:24:27;;;;;;;1.08;0.55;;;;;;;;;;5094204;28;20028;-59
2023/10/27 04:26:53;;;;;;;2.33;1.15;;;;;;;;;;5093960;28;20342;-59
2023/10/27 04:29:19;;;;;;;4.82;1.23;;;;;;;;;;5094409;28;20031;-59
2023/10/27 04:31:46;;;;;;;2.72;0.93;;;;;;;;;;5094140;28;20024;-59
2023/10/27 04:34:11;;;;;;;3.75;1.48;;;;;;;;;;5093604;28;20043;-59
2023/10/27 04:36:37;;;;;;;2.05;0.95;;;;;;;;;;5093555;28;20047;-59
2023/10/27 04:39:04;;;;;;;1.75;0.77;;;;;;;;;;5094232;28;20116;-59
2023/10/27 04:41:30;;;;;;;1.67;0.60;;;;;;;;;;5093778;28;20064;-59
2023/10/27 04:43:57;;;;;;;2.97;1.02;;;;;;;;;;5092798;28;20028;-59
2023/10/27 04:46:23;;;;;;;1.60;0.75;;;;;;;;;;5093590;28;20408;-59
2023/10/27 04:48:49;;;;;;;1.98;0.88;;;;;;;;;;5093406;28;20089;-59
2023/10/27 04:51:15;;;;;;;4.20;1.05;;;;;;;;;;5093359;28;20504;-59
2023/10/27 04:53:41;;;;;;;1.70;0.77;;;;;;;;;;5093223;28;20024;-59
2023/10/27 04:56:07;;;;;;;2.22;0.68;;;;;;;;;;5093354;28;20128;-59
2023/10/27 04:58:33;;;;;;;1.65;0.85;;;;;;;;;;5093575;28;20043;-59
2023/10/27 05:00:59;;;;;;;3.45;1.42;;;;;;;;;;5093408;28;20024;-59
2023/10/27 05:03:27;;;;;;;1.50;0.90;;;;;;;;;;5092961;28;20157;-59
2023/10/27 05:05:52;;;;;;;2.33;0.95;;;;;;;;;;5093063;28;20033;-59
2023/10/27 05:08:18;;;;;;;2.67;0.90;;;;;;;;;;5093880;28;20454;-59
2023/10/27 05:10:46;;;;;;;1.88;1.13;;;;;;;;;;5097219;28;20096;-58
2023/10/27 05:13:12;;;;;;;3.60;0.77;;;;;;;;;;5097578;28;20065;-58
2023/10/27 05:15:38;;;;;;;3.58;0.88;;;;;;;;;;5096682;28;20028;-60
2023/10/27 05:18:04;;;;;;;1.85;0.70;;;;;;;;;;5097120;28;20081;-58
2023/10/27 05:20:39;;;;;;;1.30;0.73;;;;;;;;;;5096945;28;20024;-58
2023/10/27 05:23:05;;;;;;;0.85;0.50;;;;;;;;;;5097440;28;20024;-59
2023/10/27 05:25:31;;;;;;;2.03;0.85;;;;;;;;;;5097635;28;20036;-59
2023/10/27 05:27:57;;;;;;;2.60;1.13;;;;;;;;;;5096814;28;20169;-59
2023/10/27 05:30:23;;;;;;;2.67;0.57;;;;;;;;;;5096810;28;20055;-59
2023/10/27 05:32:49;;;;;;;1.83;0.70;;;;;;;;;;5096552;28;20125;-59
2023/10/27 05:35:15;;;;;;;3.00;1.02;;;;;;;;;;5096503;28;20056;-59
2023/10/27 05:37:41;;;;;;;1.83;0.60;;;;;;;;;;5096229;28;20048;-59
2023/10/27 05:40:07;;;;;;;1.70;0.90;;;;;;;;;;5097101;28;20020;-59
2023/10/27 05:42:33;;;;;;;5.28;1.08;;;;;;;;;;5096516;28;20028;-59
2023/10/27 05:44:59;;;;;;;1.55;0.80;;;;;;;;;;5096989;28;20464;-59
2023/10/27 05:47:25;;;;;;;1.67;0.90;;;;;;;;;;5096649;28;20366;-59
2023/10/27 05:49:54;;;;;;;2.03;0.80;;;;;;;;;;5097161;28;20020;-59
2023/10/27 05:52:20;;;;;;;2.60;0.93;;;;;;;;;;5096842;28;20035;-59
2023/10/27 05:54:46;;;;;;;1.80;0.90;;;;;;;;;;5096270;28;20370;-59
2023/10/27 05:57:12;;;;;;;3.20;1.55;;;;;;;;;;5096777;28;20027;-59
2023/10/27 05:59:38;;;;;;;10.98;1.40;;;;;;;;;;5096606;28;20511;-59
2023/10/27 06:02:04;;;;;;;1.60;0.60;;;;;;;;;;5096152;28;20422;-59
2023/10/27 06:04:30;;;;;;;1.65;0.75;;;;;;;;;;5096257;28;20111;-59
2023/10/27 06:06:56;;;;;;;4.22;0.95;;;;;;;;;;5096118;28;20031;-59
2023/10/27 06:09:22;;;;;;;5.35;1.02;;;;;;;;;;5096599;28;20450;-59
2023/10/27 06:11:48;;;;;;;3.22;1.05;;;;;;;;;;5096381;28;20027;-59
2023/10/27 06:14:14;;;;;;;2.30;0.82;;;;;;;;;;5095980;28;20028;-59
2023/10/27 06:16:40;;;;;;;1.55;0.70;;;;;;;;;;5095824;28;20032;-59
2023/10/27 06:19:06;;;;;;;2.10;0.85;;;;;;;;;;5096124;28;20034;-59
2023/10/27 06:21:32;;;;;;;2.60;0.95;;;;;;;;;;5096030;28;20027;-59
2023/10/27 06:23:58;;;;;;;0.88;0.40;;;;;;;;;;5096280;28;20017;-59
2023/10/27 06:26:24;;;;;;;2.47;0.90;;;;;;;;;;5095740;28;20060;-59
2023/10/27 06:28:50;;;;;;;2.17;0.90;;;;;;;;;;5095448;28;20462;-59
2023/10/27 06:31:16;;;;;;;1.73;1.20;;;;;;;;;;5095310;28;20028;-59
2023/10/27 06:33:42;;;;;;;1.92;0.80;;;;;;;;;;5095536;28;20028;-59
2023/10/27 06:36:08;;;;;;;1.88;0.90;;;;;;;;;;5095562;28;20044;-59
2023/10/27 06:38:33;;;;;;;2.08;1.30;;;;;;;;;;5095652;28;20032;-59
2023/10/27 06:40:59;;;;;;;2.35;1.17;;;;;;;;;;5095066;28;20028;-59
2023/10/27 06:43:26;;;;;;;1.63;0.73;;;;;;;;;;5095024;28;20024;-59
2023/10/27 06:45:52;;;;;;;1.83;0.85;;;;;;;;;;5095311;28;20376;-59
2023/10/27 06:48:18;;;;;;;2.35;1.15;;;;;;;;;;5095231;28;20035;-59
2023/10/27 06:50:44;;;;;;;1.67;1.00;;;;;;;;;;5094892;28;20035;-59
2023/10/27 06:53:10;;;;;;;1.35;0.88;;;;;;;;;;5095469;28;20027;-59
2023/10/27 06:55:36;;;;;;;2.15;0.80;;;;;;;;;;5095078;28;20024;-59
2023/10/27 06:58:03;;;;;;;1.27;0.65;;;;;;;;;;5095331;28;20055;-59
2023/10/27 07:00:30;;;;;;;2.55;0.98;;;;;;;;;;5095533;28;20028;-59
2023/10/27 07:02:56;;;;;;;1.42;0.68;;;;;;;;;;5094888;28;20036;-59
2023/10/27 07:05:23;;;;;;;1.90;0.70;;;;;;;;;;5095600;28;20024;-59
2023/10/27 07:07:49;;;;;;;1.02;0.40;;;;;;;;;;5095354;28;20531;-59
2023/10/27 07:10:16;;;;;;;1.30;0.73;;;;;;;;;;5095447;28;20081;-59
2023/10/27 07:12:43;;;;;;;1.42;0.70;;;;;;;;;;5095463;28;20032;-59
2023/10/27 07:15:09;;;;;;;2.25;0.82;;;;;;;;;;5094358;28;20560;-59
2023/10/27 07:17:35;;;;;;;0.88;0.40;;;;;;;;;;5094647;28;20067;-59
2023/10/27 07:20:03;;;;;;;1.10;0.63;;;;;;;;;;5095481;28;20059;-59
2023/10/27 07:22:30;;;;;;;1.55;0.77;;;;;;;;;;5095374;28;20388;-59
2023/10/27 07:24:56;;;;;;;1.08;0.55;;;;;;;;;;5094760;28;20462;-59
2023/10/27 07:27:22;;;;;;;2.67;0.57;;;;;;;;;;5094503;28;20058;-59
2023/10/27 07:29:48;;;;;;;1.50;0.80;;;;;;;;;;5094557;28;20058;-59
2023/10/27 07:32:14;;;;;;;1.38;0.68;;;;;;;;;;5094050;28;20020;-59
2023/10/27 07:34:39;;;;;;;1.90;0.73;;;;;;;;;;5094921;28;20032;-59
2023/10/27 07:37:06;;;;;;;1.75;0.70;;;;;;;;;;5094201;28;20397;-59
2023/10/27 07:39:32;;;;;;;1.08;0.55;;;;;;;;;;5094312;28;20064;-59
2023/10/27 07:41:58;;;;;;;2.83;0.82;;;;;;;;;;5094210;28;20069;-59
2023/10/27 07:44:24;;;;;;;5.07;0.77;;;;;;;;;;5094621;28;20104;-59
2023/10/27 07:46:50;;;;;;;1.55;0.73;;;;;;;;;;5094531;28;20039;-59
2023/10/27 07:49:16;;;;;;;2.65;0.80;;;;;;;;;;5094202;28;20024;-59
2023/10/27 07:51:42;;;;;;;0.90;0.50;;;;;;;;;;5094794;28;20450;-59
2023/10/27 07:54:08;;;;;;;1.70;0.50;;;;;;;;;;5094458;28;20054;-59
2023/10/27 07:56:34;;;;;;;1.40;0.60;;;;;;;;;;5094823;28;20028;-59
2023/10/27 07:59:00;;;;;;;5.10;0.60;;;;;;;;;;5094070;28;20032;-59
2023/10/27 08:01:26;;;;;;;1.13;0.50;;;;;;;;;;5094419;28;20051;-59
2023/10/27 08:03:52;;;;;;;1.65;0.80;;;;;;;;;;5094024;28;20085;-59
2023/10/27 08:06:18;;;;;;;1.10;0.50;;;;;;;;;;5094164;28;20025;-59
2023/10/27 08:08:44;;;;;;;0.52;0.20;;;;;;;;;;5093908;28;20027;-59
2023/10/27 08:11:16;;;;;;;0.60;0.32;;;;;;;;;;5094179;28;20458;-59
2023/10/27 08:13:43;;;;;;;0.95;0.50;;;;;;;;;;5094433;28;20048;-59
2023/10/27 08:16:09;;;;;;;0.82;0.30;;;;;;;;;;5093675;28;20128;-59
2023/10/27 08:18:36;;;;;;;0.28;0.15;;;;;;;;;;5093738;28;20123;-59
2023/10/27 08:21:02;;;;;;;0.77;0.30;;;;;;;;;;5093991;28;20031;-59
2023/10/27 08:23:28;;;;;;;0.80;0.50;;;;;;;;;;5093708;28;20027;-59
2023/10/27 08:25:54;;;;;;;0.68;0.35;;;;;;;;;;5093785;28;20027;-59
2023/10/27 08:28:20;;;;;;;0.47;0.20;;;;;;;;;;5093566;28;20369;-59
2023/10/27 08:30:46;;;;;;;0.73;0.30;;;;;;;;;;5093718;28;20060;-59
2023/10/27 08:33:14;;;;;;;0.50;0.20;;;;;;;;;;5093927;28;20028;-59
2023/10/27 08:35:40;;;;;;;0.52;0.20;;;;;;;;;;5093227;28;20462;-59
2023/10/27 08:38:06;;;;;;;0.90;0.73;;;;;;;;;;5093336;28;20097;-59
2023/10/27 08:40:32;;;;;;;0.40;0.20;;;;;;;;;;5092341;28;20032;-59
2023/10/27 08:42:59;;;;;;;0.30;0.10;;;;;;;;;;5092643;28;20074;-59
2023/10/27 08:45:25;;;;;;;0.40;0.20;;;;;;;;;;5096963;28;20032;-59
2023/10/27 08:47:51;;;;;;;0.40;0.20;;;;;;;;;;5097418;28;20031;-59
2023/10/27 08:50:17;;;;;;;0.22;0.20;;;;;;;;;;5098196;28;20024;-59
2023/10/27 08:52:44;;;;;;;0.70;0.35;;;;;;;;;;5098128;28;20106;-59
2023/10/27 08:55:11;;;;;;;0.75;0.30;;;;;;;;;;5098407;28;20032;-59
2023/10/27 08:57:37;;;;;;;0.38;0.20;;;;;;;;;;5097959;28;20022;-59
2023/10/27 09:00:06;;;;;;;0.43;0.20;;;;;;;;;;5098027;28;20046;-59
2023/10/27 09:02:32;;;;;;;0.55;0.10;;;;;;;;;;5098110;28;20032;-59
2023/10/27 09:05:04;;;;;;;1.08;0.30;;;;;;;;;;5097788;28;20039;-59
2023/10/27 09:07:31;;;;;;;0.70;0.13;;;;;;;;;;5097134;28;20046;-59
2023/10/27 09:09:58;;;;;;;1.25;0.25;;;;;;;;;;5097636;28;20024;-59
2023/10/27 09:12:26;;;;;;;2.67;0.47;;;;;;;;;;5097554;28;20021;-59
2023/10/27 09:15:04;;;;;;;0.10;0.10;;;;;;;;;;5097015;28;20407;-58
2023/10/27 09:17:30;;;;;;;1.80;0.30;;;;;;;;;;5097082;28;20020;-59
2023/10/27 09:20:03;;;;;;;0.00;0.00;;;;;;;;;;5097457;28;20026;-59
2023/10/27 09:22:29;;;;;;;0.20;0.10;;;;;;;;;;5097015;28;20030;-59
2023/10/27 09:25:12;;;;;;;0.30;0.10;;;;;;;;;;5097070;28;20028;-59
2023/10/27 09:27:43;;;;;;;0.90;0.50;;;;;;;;;;5097230;28;20020;-59
2023/10/27 09:30:09;;;;;;;1.05;0.38;;;;;;;;;;5097532;28;20024;-59
2023/10/27 09:32:35;;;;;;;0.55;0.20;;;;;;;;;;5096801;28;20055;-59
2023/10/27 09:35:08;;;;;;;0.43;0.20;;;;;;;;;;5096791;28;20012;-59
2023/10/27 09:37:37;;;;;;;1.00;0.25;;;;;;;;;;5097045;28;20439;-59
2023/10/27 09:40:04;;;;;;;0.20;0.10;;;;;;;;;;5096508;28;20035;-59
2023/10/27 09:42:32;;;;;;;0.70;0.30;;;;;;;;;;5096285;28;20485;-59
2023/10/27 09:45:03;;;;;;;2.85;0.30;;;;;;;;;;5096583;28;20031;-59
2023/10/27 09:47:39;;;;;;;0.77;0.40;;;;;;;;;;5096891;28;20117;-59
2023/10/27 09:50:09;;;;;;;0.90;0.38;;;;;;;;;;5096517;28;20063;-59
2023/10/27 09:52:35;;;;;;;2.42;0.50;;;;;;;;;;5096467;28;20052;-59
2023/10/27 09:55:02;;;;;;;1.30;0.45;;;;;;;;;;5096404;28;20077;-59
2023/10/27 09:57:34;;;;;;;1.20;0.50;;;;;;;;;;5096612;28;20039;-59
2023/10/27 10:00:03;;;;;;;0.43;0.22;;;;;;;;;;5096145;28;20020;-59
2023/10/27 10:02:30;;;;;;;1.05;0.50;;;;;;;;;;5096465;28;20431;-59
2023/10/27 10:04:57;;;;;;;1.63;0.60;;;;;;;;;;5096731;28;20035;-59
2023/10/27 10:07:30;;;;;;;0.93;0.40;;;;;;;;;;5096115;28;20081;-59
2023/10/27 10:09:55;;;;;;;0.88;0.40;;;;;;;;;;5096503;28;20024;-59
2023/10/27 10:12:21;;;;;;;1.02;0.38;;;;;;;;;;5096229;28;20093;-59
2023/10/27 10:14:48;;;;;;;1.48;0.70;;;;;;;;;;5096443;28;20035;-59
2023/10/27 10:17:33;;;;;;;1.80;0.50;;;;;;;;;;5095916;28;20068;-59
2023/10/27 10:19:59;;;;;;;1.75;0.68;;;;;;;;;;5096494;28;20480;-59
2023/10/27 10:22:40;;;;;;;2.50;0.80;;;;;;;;;;5096453;28;20032;-59
2023/10/27 10:25:15;;;;;;;0.57;0.30;;;;;;;;;;5096663;28;20111;-59
2023/10/27 10:28:00;;;;;;;1.05;0.50;;;;;;;;;;5096314;28;20035;-59
2023/10/27 10:30:26;;;;;;;4.57;0.90;;;;;;;;;;5096332;28;20024;-59
2023/10/27 10:33:12;;;;;;;1.05;0.50;;;;;;;;;;5096007;28;20051;-59
2023/10/27 10:35:38;;;;;;;5.18;1.35;;;;;;;;;;5095568;28;20028;-59
2023/10/27 10:38:27;;;;;;;1.73;0.65;;;;;;;;;;5095080;28;20078;-59
2023/10/27 10:40:54;;;;;;;3.22;1.05;;;;;;;;;;5095938;28;20028;-59
2023/10/27 10:43:23;;;;;;;0.98;0.63;;;;;;;;;;5095425;28;20111;-59
2023/10/27 10:45:50;;;;;;;3.20;0.60;;;;;;;;;;5096189;28;20089;-59
2023/10/27 10:48:17;;;;;;;2.00;0.75;;;;;;;;;;5096010;28;20025;-59
2023/10/27 10:50:43;;;;;;;0.80;0.43;;;;;;;;;;5095728;28;20420;-59
2023/10/27 10:53:10;;;;;;;1.67;0.73;;;;;;;;;;5096064;28;20120;-59
2023/10/27 10:55:36;;;;;;;2.60;0.73;;;;;;;;;;5095088;28;20090;-59
2023/10/27 10:58:02;;;;;;;3.40;0.82;;;;;;;;;;5096043;28;20036;-59
2023/10/27 11:00:35;;;;;;;2.90;0.55;;;;;;;;;;5095708;28;20366;-59
2023/10/27 11:03:07;;;;;;;2.78;0.82;;;;;;;;;;5095401;28;20457;-59
2023/10/27 11:05:33;;;;;;;2.08;0.60;;;;;;;;;;5095369;28;20074;-59
2023/10/27 11:07:59;;;;;;;4.28;0.70;;;;;;;;;;5094572;28;20036;-59
2023/10/27 11:10:25;;;;;;;1.55;0.70;;;;;;;;;;5095209;28;20020;-59
2023/10/27 11:12:51;;;;;;;0.85;0.50;;;;;;;;;;5095206;28;20024;-59
2023/10/27 11:15:36;;;;;;;3.30;0.50;;;;;;;;;;5095624;28;20453;-58
2023/10/27 11:18:05;;;;;;;1.65;0.60;;;;;;;;;;5095134;28;20027;-59
2023/10/27 11:20:38;;;;;;;3.25;0.63;;;;;;;;;;5094893;28;20032;-59
2023/10/27 11:23:08;;;;;;;2.88;0.77;;;;;;;;;;5094376;28;20457;-59
2023/10/27 11:25:34;;;;;;;3.75;0.82;;;;;;;;;;5094650;28;20455;-59
2023/10/27 11:28:19;;;;;;;2.03;0.75;;;;;;;;;;5094705;28;20032;-59
2023/10/27 11:31:00;;;;;;;4.38;0.60;;;;;;;;;;5095005;28;20020;-59
2023/10/27 11:33:26;;;;;;;1.63;0.65;;;;;;;;;;5094593;28;20107;-59
2023/10/27 11:35:52;;;;;;;5.45;0.90;;;;;;;;;;5094521;28;20028;-59
2023/10/27 11:38:18;;;;;;;2.00;0.90;;;;;;;;;;5094471;28;20056;-59
2023/10/27 11:40:44;;;;;;;2.30;1.00;;;;;;;;;;5094959;28;20067;-59
2023/10/27 11:43:10;;;;;;;2.92;1.00;;;;;;;;;;5094674;28;20024;-59
2023/10/27 11:45:36;;;;;;;0.65;0.30;;;;;;;;;;5094239;28;20080;-59
2023/10/27 11:48:02;;;;;;;1.83;0.73;;;;;;;;;;5094694;28;20032;-59
2023/10/27 11:50:28;;;;;;;0.93;0.50;;;;;;;;;;5094689;28;20031;-59
2023/10/27 11:52:54;;;;;;;1.05;0.40;;;;;;;;;;5093911;28;20020;-59
2023/10/27 11:55:20;;;;;;;2.80;0.77;;;;;;;;;;5093741;28;20355;-58
2023/10/27 11:57:46;;;;;;;1.52;0.50;;;;;;;;;;5094030;28;20107;-58
2023/10/27 12:00:12;;;;;;;1.85;0.77;;;;;;;;;;5094160;28;20058;-59
2023/10/27 12:02:38;;;;;;;6.07;1.27;;;;;;;;;;5094006;28;20036;-59
2023/10/27 12:05:04;;;;;;;1.13;0.73;;;;;;;;;;5093959;28;20055;-59
2023/10/27 12:07:30;;;;;;;1.10;0.47;;;;;;;;;;5094406;28;20470;-59
2023/10/27 12:09:56;;;;;;;3.13;0.80;;;;;;;;;;5094527;28;20058;-59
2023/10/27 12:12:22;;;;;;;2.08;0.68;;;;;;;;;;5094129;28;20456;-59
2023/10/27 12:14:48;;;;;;;1.33;0.60;;;;;;;;;;5093772;28;20473;-58
2023/10/27 12:17:14;;;;;;;1.83;0.73;;;;;;;;;;5093575;28;20157;-58
2023/10/27 12:19:40;;;;;;;0.88;0.40;;;;;;;;;;5093654;28;20374;-59
2023/10/27 12:22:08;;;;;;;2.45;0.57;;;;;;;;;;5093715;28;20024;-59
2023/10/27 12:24:34;;;;;;;3.40;0.82;;;;;;;;;;5093733;28;20374;-58
2023/10/27 12:27:01;;;;;;;4.00;0.88;;;;;;;;;;5093336;28;20024;-58
2023/10/27 12:29:30;;;;;;;1.30;0.47;;;;;;;;;;5094086;28;20028;-58
2023/10/27 12:31:56;;;;;;;1.75;0.40;;;;;;;;;;5093639;28;20043;-59
2023/10/27 12:34:22;;;;;;;1.15;0.68;;;;;;;;;;5093401;28;20020;-59
2023/10/27 12:36:48;;;;;;;2.92;0.30;;;;;;;;;;5093662;28;20048;-58
2023/10/27 12:39:15;;;;;;;1.88;0.70;;;;;;;;;;5093894;28;20024;-58
2023/10/27 12:41:41;;;;;;;1.25;0.40;;;;;;;;;;5093715;28;20035;-59
2023/10/27 12:44:07;;;;;;;1.73;0.30;;;;;;;;;;5093621;28;20024;-59
2023/10/27 12:46:33;;;;;;;1.02;0.52;;;;;;;;;;5093983;28;20111;-59
2023/10/27 12:49:01;;;;;;;0.95;0.40;;;;;;;;;;5093207;28;20461;-59
2023/10/27 12:51:27;;;;;;;0.95;0.38;;;;;;;;;;5094050;28;20026;-58
2023/10/27 12:53:54;;;;;;;0.57;0.17;;;;;;;;;;5093323;28;20482;-59
2023/10/27 12:56:20;;;;;;;1.25;0.55;;;;;;;;;;5093009;28;20500;-59
2023/10/27 12:58:46;;;;;;;1.00;0.30;;;;;;;;;;5093366;28;20028;-59
2023/10/27 13:01:12;;;;;;;1.63;0.60;;;;;;;;;;5093785;28;20032;-59
2023/10/27 13:03:38;;;;;;;0.93;0.38;;;;;;;;;;5093869;28;20065;-58
2023/10/27 13:06:04;;;;;;;4.70;0.75;;;;;;;;;;5093094;28;20024;-59
2023/10/27 13:08:30;;;;;;;1.13;0.40;;;;;;;;;;5093371;28;20032;-59
2023/10/27 13:10:56;;;;;;;1.42;0.50;;;;;;;;;;5093943;28;20354;-59
2023/10/27 13:13:23;;;;;;;1.02;0.47;;;;;;;;;;5093320;28;20028;-59
2023/10/27 13:15:49;;;;;;;1.65;0.22;;;;;;;;;;5093179;28;20028;-59
2023/10/27 13:18:15;;;;;;;4.40;0.65;;;;;;;;;;5093700;28;20090;-58
2023/10/27 13:20:41;;;;;;;1.23;0.40;;;;;;;;;;5093564;28;20030;-59
2023/10/27 13:23:07;;;;;;;0.73;0.20;;;;;;;;;;5093118;28;20035;-59
2023/10/27 13:25:33;;;;;;;1.13;0.38;;;;;;;;;;5093460;28;20028;-59
2023/10/27 13:28:00;;;;;;;1.67;0.57;;;;;;;;;;5093648;28;20470;-58
2023/10/27 13:30:28;;;;;;;3.00;0.55;;;;;;;;;;5095787;28;20111;-59
2023/10/27 13:32:54;;;;;;;0.98;0.20;;;;;;;;;;5096773;28;20024;-59
2023/10/27 13:35:20;;;;;;;0.90;0.22;;;;;;;;;;5097079;28;20035;-59
2023/10/27 13:37:46;;;;;;;2.55;0.90;;;;;;;;;;5097653;28;20191;-59
2023/10/27 13:40:14;;;;;;;3.65;0.50;;;;;;;;;;5097323;28;20024;-59
2023/10/27 13:42:40;;;;;;;1.55;0.32;;;;;;;;;;5097378;28;20028;-59
2023/10/27 13:45:06;;;;;;;2.40;1.10;;;;;;;;;;5096631;28;20089;-59
2023/10/27 13:47:32;;;;;;;1.02;0.38;;;;;;;;;;5096916;28;20028;-59
2023/10/27 13:49:58;;;;;;;1.38;0.47;;;;;;;;;;5097448;28;20034;-58
2023/10/27 13:52:24;;;;;;;1.25;0.38;;;;;;;;;;5096430;28;20351;-59
2023/10/27 13:54:50;;;;;;;1.80;0.65;;;;;;;;;;5096415;28;20114;-58
2023/10/27 13:57:17;;;;;;;1.65;0.50;;;;;;;;;;5096797;28;20089;-59
2023/10/27 13:59:43;;;;;;;0.77;0.43;;;;;;;;;;5096816;28;20032;-59
2023/10/27 14:02:09;;;;;;;0.52;0.32;;;;;;;;;;5096298;28;20030;-58
2023/10/27 14:04:35;;;;;;;1.65;0.38;;;;;;;;;;5096758;28;20032;-59
2023/10/27 14:07:01;;;;;;;0.80;0.30;;;;;;;;;;5096166;28;20028;-59
2023/10/27 14:09:29;;;;;;;1.88;0.43;;;;;;;;;;5096725;28;20024;-59
2023/10/27 14:11:56;;;;;;;1.55;0.52;;;;;;;;;;5095736;28;20032;-59
2023/10/27 14:14:22;;;;;;;0.95;0.38;;;;;;;;;;5096092;28;20454;-58
2023/10/27 14:16:48;;;;;;;0.43;0.10;;;;;;;;;;5095835;28;20036;-59
2023/10/27 14:19:15;;;;;;;0.52;0.30;;;;;;;;;;5095951;28;20123;-59
2023/10/27 14:21:43;;;;;;;1.83;0.38;;;;;;;;;;5096448;28;20400;-59
2023/10/27 14:24:09;;;;;;;0.65;0.17;;;;;;;;;;5096461;28;20039;-59
2023/10/27 14:26:36;;;;;;;3.65;0.55;;;;;;;;;;5096106;28;20028;-59
2023/10/27 14:29:02;;;;;;;1.80;0.45;;;;;;;;;;5096153;28;20016;-59
2023/10/27 14:31:29;;;;;;;0.70;0.35;;;;;;;;;;5096379;28;20099;-59
2023/10/27 14:33:55;;;;;;;0.60;0.30;;;;;;;;;;5095742;28;20458;-59
2023/10/27 14:36:23;;;;;;;0.82;0.40;;;;;;;;;;5095551;28;20060;-59
2023/10/27 14:38:49;;;;;;;0.73;0.30;;;;;;;;;;5095586;28;20131;-59
2023/10/27 14:41:15;;;;;;;0.90;0.25;;;;;;;;;;5094393;28;20032;-59